Boyne City, MI (49712)

8:17 AM EST on February 01, 2015 (GMT -0500)
3.4 mi SSW of Boyne City | Change Station
CLOSE
Current Station
Personal Weather Station
Location: Boyne City, MI
Elevation: 820 ft
Nearby Weather Stations

Elev 820 ft 45.17 °N, 85.04 °W | Updated 5 seconds ago

Mostly Cloudy
Mostly Cloudy
7.2 °F
Feels Like 7 °F
N
0.4
Wind Variable Wind from SE
Gusts 3.4 mph

Today
High -- | Low -- °F
--% Chance of Precip.
Yesterday
High -- | Low -- °F
Precip. -- in
8:00 AM 5:47 PM
Waxing Gibbous, 95% visible
Pressure 30.33 in
Visibility 10.0 miles
Clouds Mostly Cloudy 12000 ft
Windchill 7 °F
Dew Point 1 °F
Humidity 75%
Rainfall 0.00 in
Snow Depth Not available.
UV 0 out of 12
Pollen .10 out of 12
Air Quality Not available.
Flu Activity Not available.
METAR KCVX 011254Z AUTO 06011G15KT 10SM BKN120 M15/M18 A3033 RMK AO2 T11491179

More Conditions Fewer Conditions

Pressure 30.33 in
Visibility 10.0 miles
Clouds Mostly Cloudy 12000 ft
Windchill 7 °F
Dew Point 1 °F
Humidity 75%
Rainfall 0.00 in
Snow Depth Not available.
UV 0 out of 12
Pollen .10 out of 12
Air Quality Not available.
Flu Activity Not available.
METAR KCVX 011254Z AUTO 06011G15KT 10SM BKN120 M15/M18 A3033 RMK AO2 T11491179

More Conditions Fewer Conditions

Nowcast | as of 8:00 am EST on February 1, 2015

At 9 am...cloudy. Temperature 5 above. East winds 11 mph. Wind chill 11 below. At 11 am...cloudy. Temperature 5 above. East winds 13 mph. Wind chill 12 below. At 1 PM...cloudy. Temperature 6 above. East winds 13 mph. Wind chill 11 below. At 3 PM...cloudy. Temperature 8 above. Northeast winds 13 mph. Wind chill 8 below.

×

10-Day Weather Forecast

Almanac

Astronomy

Feb. 01, 2015 Rise Set
Actual Time
Civil Twilight
Nautical Twilight
Astronomical Twilight
Moon
Length of Visible Light
Length of Day
Tomorrow will be .
, % of the Moon is Illuminated

Today's Extremes

State Highs State Lows

Community

WunderPhotos

Upload Photos

1,792,359 photos uploaded!

WunderBlogs® & News

Nearby

Air Quality

  Air Quality AQ Index Pollutant
Not available.

Snow Depth

Station Depth Elevation

Earthquake Activity

City Distance Mag. Time & Date
Minimum magnitude displayed is 2.5.

Coastal Water Temperatures

Place Temperature

Nearby Weather Stations